createdAt,value
2023-04-03T00:02:50.924Z,97802.53
2023-04-03T00:07:53.284Z,97793.97
2023-04-03T00:12:55.249Z,97798.84
2023-04-03T00:17:57.036Z,97791.91
2023-04-03T00:22:59.039Z,97797.00
2023-04-03T00:28:01.015Z,97804.53
2023-04-03T00:33:03.159Z,97800.94
2023-04-03T00:38:05.497Z,97800.66
2023-04-03T00:43:22.342Z,97798.50
2023-04-03T00:48:30.384Z,97786.88
2023-04-03T00:53:38.189Z,97800.34
2023-04-03T00:58:49.896Z,97793.97
2023-04-03T01:03:52.245Z,97796.81
2023-04-03T01:08:55.778Z,97790.81
2023-04-03T01:13:57.729Z,97800.84
2023-04-03T01:19:03.809Z,97801.28
2023-04-03T01:24:32.639Z,97797.69
2023-04-03T01:29:34.367Z,97821.91
2023-04-03T01:34:36.134Z,97817.25
2023-04-03T01:39:38.346Z,97822.66
2023-04-03T01:44:40.589Z,97824.31
2023-04-03T01:49:42.476Z,97816.81
2023-04-03T01:54:44.586Z,97820.16
2023-04-03T01:59:46.459Z,97814.53
2023-04-03T02:04:48.307Z,97807.44
2023-04-03T02:09:50.208Z,97803.91
2023-04-03T02:14:52.187Z,97819.78
2023-04-03T02:19:53.856Z,97812.25
2023-04-03T02:24:55.620Z,97809.28
2023-04-03T02:29:57.333Z,97812.00
2023-04-03T02:34:59.176Z,97801.16
2023-04-03T02:40:01.533Z,97810.59
2023-04-03T02:45:04.873Z,97805.13
2023-04-03T02:50:06.825Z,97813.03
2023-04-03T02:55:09.044Z,97811.81
2023-04-03T03:00:11.460Z,97809.72
2023-04-03T03:05:13.558Z,97807.03
2023-04-03T03:10:15.561Z,97819.44
2023-04-03T03:15:18.247Z,97816.56
2023-04-03T03:20:20.334Z,97814.50
2023-04-03T03:25:22.085Z,97810.28
2023-04-03T03:30:23.886Z,97809.56
2023-04-03T03:35:25.673Z,97811.25
2023-04-03T03:40:27.633Z,97807.56
2023-04-03T03:45:29.608Z,97808.84
2023-04-03T03:50:32.430Z,97807.00
2023-04-03T03:55:34.315Z,97809.69
2023-04-03T04:00:36.969Z,97804.66
2023-04-03T04:05:39.384Z,97815.06
2023-04-03T04:10:41.679Z,97815.25
2023-04-03T04:15:44.615Z,97816.72
2023-04-03T04:20:47.174Z,97816.31
2023-04-03T04:25:51.557Z,97810.28
2023-04-03T04:30:54.187Z,97822.78
2023-04-03T04:35:57.995Z,97817.63
2023-04-03T04:41:00.802Z,97822.59
2023-04-03T04:46:11.404Z,97821.78
2023-04-03T04:51:18.367Z,97830.97
2023-04-03T04:56:20.532Z,97831.19
2023-04-03T05:01:23.023Z,97832.88
2023-04-03T05:06:37.294Z,97825.19
2023-04-03T05:11:43.956Z,97844.31
2023-04-03T05:16:50.231Z,97847.03
2023-04-03T05:21:53.796Z,97842.03
2023-04-03T05:26:55.899Z,97844.31
2023-04-03T05:31:58.218Z,97846.44
2023-04-03T05:37:01.436Z,97847.66
2023-04-03T05:42:03.848Z,97847.22
2023-04-03T05:47:06.191Z,97848.47
2023-04-03T05:52:23.478Z,97856.16
2023-04-03T05:57:26.304Z,97849.88
2023-04-03T06:02:28.303Z,97852.59
2023-04-03T06:07:30.297Z,97858.66
2023-04-03T06:12:32.156Z,97862.16
2023-04-03T06:17:34.030Z,97860.94
2023-04-03T06:22:36.357Z,97863.44
2023-04-03T06:27:38.234Z,97861.72
2023-04-03T06:32:40.279Z,97874.88
2023-04-03T06:37:41.942Z,97863.06
2023-04-03T06:42:43.944Z,97873.59
2023-04-03T06:47:47.809Z,97875.31
2023-04-03T06:52:49.707Z,97878.31
2023-04-03T06:57:51.713Z,97887.47
2023-04-03T07:02:53.591Z,97892.09
2023-04-03T07:07:55.441Z,97892.25
2023-04-03T07:12:57.157Z,97893.84
2023-04-03T07:17:59.309Z,97901.94
2023-04-03T07:23:04.198Z,97909.09
2023-04-03T07:28:06.170Z,97911.00
2023-04-03T07:33:07.993Z,97909.94
2023-04-03T07:38:10.840Z,97912.00
2023-04-03T07:43:12.380Z,97918.63
2023-04-03T07:48:14.425Z,97922.41
2023-04-03T07:53:16.492Z,97922.75
2023-04-03T07:58:19.325Z,97936.88
2023-04-03T08:03:21.224Z,97930.22
2023-04-03T08:08:23.922Z,97923.41
2023-04-03T08:13:25.645Z,97932.97
2023-04-03T08:18:27.776Z,97924.44
2023-04-03T08:23:29.575Z,97937.22
2023-04-03T08:28:31.293Z,97935.25
2023-04-03T08:33:35.011Z,97930.59
2023-04-03T08:38:38.247Z,97934.25
2023-04-03T08:43:53.248Z,97932.75
2023-04-03T08:48:55.890Z,97930.75
2023-04-03T08:54:05.600Z,97927.03
2023-04-03T08:59:25.771Z,97936.38
2023-04-03T09:04:28.884Z,97938.59
2023-04-03T09:09:39.553Z,97940.38
2023-04-03T09:15:07.087Z,97949.69
2023-04-03T09:20:18.977Z,97945.28
2023-04-03T09:25:38.265Z,97945.66
2023-04-03T09:30:40.233Z,97952.16
2023-04-03T09:35:48.130Z,97947.69
2023-04-03T09:41:18.064Z,97955.84
2023-04-03T09:46:40.613Z,97944.28
2023-04-03T09:51:42.424Z,97938.53
2023-04-03T09:56:51.993Z,97958.44
2023-04-03T10:02:04.277Z,97965.84
2023-04-03T10:07:30.356Z,97943.66
2023-04-03T10:12:32.081Z,97944.63
2023-04-03T10:18:06.373Z,97935.69
2023-04-03T10:23:41.496Z,97935.88
2023-04-03T10:28:54.925Z,97931.09
2023-04-03T10:34:40.678Z,97928.22
2023-04-03T10:39:59.934Z,97925.50
2023-04-03T10:45:25.578Z,97928.38
2023-04-03T10:50:40.208Z,97920.34
2023-04-03T10:56:00.221Z,97921.09
2023-04-03T11:01:10.164Z,97912.59
2023-04-03T11:06:15.779Z,97905.31
2023-04-03T11:11:22.634Z,97900.16
2023-04-03T11:16:29.542Z,97896.53
2023-04-03T11:21:48.206Z,97902.16
2023-04-03T11:26:52.420Z,97898.53
2023-04-03T11:32:06.604Z,97897.28
2023-04-03T11:37:18.617Z,97901.97
2023-04-03T11:42:20.783Z,97898.72
2023-04-03T11:48:04.859Z,97894.19
2023-04-03T11:53:14.835Z,97884.06
2023-04-03T11:58:21.234Z,97883.91
2023-04-03T12:03:29.791Z,97878.16
2023-04-03T12:08:34.716Z,97867.13
2023-04-03T12:13:37.271Z,97861.44
2023-04-03T12:18:54.686Z,97868.28
2023-04-03T12:24:04.193Z,97862.84
2023-04-03T12:29:37.857Z,97852.69
2023-04-03T12:34:57.389Z,97861.09
2023-04-03T12:40:29.178Z,97873.03
2023-04-03T12:45:43.906Z,97863.16
2023-04-03T12:50:48.437Z,97848.84
2023-04-03T12:55:55.463Z,97833.63
2023-04-03T13:01:10.880Z,97836.47
2023-04-03T13:06:19.920Z,97825.84
2023-04-03T13:11:23.430Z,97838.41
2023-04-03T13:16:25.860Z,97844.13
2023-04-03T13:21:30.526Z,97839.59
2023-04-03T13:26:34.198Z,97831.06
2023-04-03T13:31:38.027Z,97836.81
2023-04-03T13:36:44.958Z,97845.50
2023-04-03T13:41:49.638Z,97832.47
2023-04-03T13:47:01.805Z,97835.97
2023-04-03T13:52:24.374Z,97824.53
2023-04-03T13:57:26.678Z,97832.47
2023-04-03T14:02:34.302Z,97822.56
2023-04-03T14:07:36.344Z,97832.28
2023-04-03T14:12:41.300Z,97828.00
2023-04-03T14:17:43.697Z,97814.44
2023-04-03T14:22:45.653Z,97802.06
2023-04-03T14:27:49.964Z,97812.28
2023-04-03T14:32:52.895Z,97818.63
2023-04-03T14:37:55.895Z,97821.09
2023-04-03T14:42:58.361Z,97807.88
2023-04-03T14:48:00.396Z,97801.53
2023-04-03T14:53:02.535Z,97808.63
2023-04-03T14:58:04.242Z,97801.69
2023-04-03T15:03:06.193Z,97805.00
2023-04-03T15:08:18.920Z,97816.06
2023-04-03T15:13:21.446Z,97820.63
2023-04-03T15:18:27.943Z,97813.50
2023-04-03T15:23:30.962Z,97822.63
2023-04-03T15:28:41.608Z,97809.19
2023-04-03T15:33:43.415Z,97814.22
2023-04-03T15:38:45.280Z,97807.16
2023-04-03T15:43:47.008Z,97817.63
2023-04-03T15:48:50.525Z,97821.59
2023-04-03T15:53:52.214Z,97816.63
2023-04-03T15:58:54.179Z,97815.63
2023-04-03T16:03:55.936Z,97814.97
2023-04-03T16:08:58.917Z,97810.84
2023-04-03T16:14:00.722Z,97820.78
2023-04-03T16:19:02.435Z,97830.16
2023-04-03T16:24:04.414Z,97828.59
2023-04-03T16:29:06.180Z,97836.72
2023-04-03T16:34:07.865Z,97835.97
2023-04-03T16:39:10.870Z,97840.84
2023-04-03T16:44:12.660Z,97844.44
2023-04-03T16:49:14.533Z,97856.94
2023-04-03T16:54:16.241Z,97862.59
2023-04-03T16:59:18.207Z,97861.47
2023-04-03T17:04:20.488Z,97866.53
2023-04-03T17:09:23.643Z,97875.81
2023-04-03T17:14:25.400Z,97867.81
2023-04-03T17:19:28.798Z,97875.00
2023-04-03T17:24:30.749Z,97874.19
2023-04-03T17:29:32.427Z,97878.50
2023-04-03T17:34:35.971Z,97883.84
2023-04-03T17:39:37.649Z,97883.75
2023-04-03T17:44:39.755Z,97890.59
2023-04-03T17:49:41.594Z,97890.94
2023-04-03T17:54:43.377Z,97888.94
2023-04-03T17:59:45.416Z,97898.16
2023-04-03T18:04:47.136Z,97905.34
2023-04-03T18:09:50.878Z,97912.34
2023-04-03T18:14:52.973Z,97913.94
2023-04-03T18:19:55.166Z,97929.69
2023-04-03T18:24:58.203Z,97927.00
2023-04-03T18:30:02.972Z,97931.03
2023-04-03T18:35:05.821Z,97935.50
2023-04-03T18:40:07.871Z,97948.88
2023-04-03T18:45:11.904Z,97940.16
2023-04-03T18:50:13.939Z,97948.50
2023-04-03T18:55:18.853Z,97953.75
2023-04-03T19:00:20.704Z,97963.75
2023-04-03T19:05:23.903Z,97965.66
2023-04-03T19:10:27.341Z,97970.25
2023-04-03T19:15:29.365Z,97974.03
2023-04-03T19:20:34.983Z,97972.16
2023-04-03T19:25:38.124Z,97976.53
2023-04-03T19:30:40.924Z,97974.88
2023-04-03T19:35:43.002Z,97979.03
2023-04-03T19:40:45.657Z,97981.09
2023-04-03T19:45:48.160Z,97975.66
2023-04-03T19:50:50.364Z,97991.91
2023-04-03T19:55:52.542Z,97987.75
2023-04-03T20:00:55.370Z,97985.88
2023-04-03T20:05:58.267Z,97992.34
2023-04-03T20:11:00.693Z,97988.56
2023-04-03T20:16:04.731Z,97989.41
2023-04-03T20:21:07.755Z,97988.56
2023-04-03T20:26:13.182Z,97991.44
2023-04-03T20:31:18.488Z,97995.41
2023-04-03T20:36:21.781Z,97989.56
2023-04-03T20:41:23.801Z,97990.38
2023-04-03T20:46:38.289Z,97986.00
2023-04-03T20:51:44.321Z,97978.94
2023-04-03T20:56:49.559Z,97988.47
2023-04-03T21:01:51.336Z,97978.03
2023-04-03T21:07:31.025Z,97983.41
2023-04-03T21:13:10.139Z,97975.44
2023-04-03T21:18:12.399Z,97981.66
2023-04-03T21:23:14.463Z,97982.03
2023-04-03T21:28:18.434Z,97974.72
2023-04-03T21:33:20.472Z,97984.28
2023-04-03T21:38:22.237Z,97985.72
2023-04-03T21:43:24.815Z,97983.16
2023-04-03T21:48:30.919Z,97984.00
2023-04-03T21:53:36.054Z,97979.00
2023-04-03T21:58:37.850Z,97974.78
2023-04-03T22:03:41.416Z,97983.06
2023-04-03T22:08:43.786Z,97979.44
2023-04-03T22:13:45.751Z,97981.53
2023-04-03T22:18:47.444Z,97985.69
2023-04-03T22:23:49.278Z,97979.53
2023-04-03T22:28:51.405Z,97972.28
2023-04-03T22:33:53.118Z,97970.50
2023-04-03T22:38:55.178Z,97974.59
2023-04-03T22:43:57.180Z,97966.50
2023-04-03T22:48:58.889Z,97965.44
2023-04-03T22:54:00.576Z,97962.44
2023-04-03T22:59:02.361Z,97964.94
2023-04-03T23:04:04.373Z,97963.72
2023-04-03T23:09:06.109Z,97972.47
2023-04-03T23:14:07.851Z,97973.63
2023-04-03T23:19:09.686Z,97964.44
2023-04-03T23:24:11.662Z,97967.72
2023-04-03T23:29:13.521Z,97964.97
2023-04-03T23:34:15.337Z,97963.88
2023-04-03T23:39:19.808Z,97962.16
2023-04-03T23:44:21.786Z,97959.41
2023-04-03T23:49:23.642Z,97954.63
2023-04-03T23:54:25.453Z,97953.03
2023-04-03T23:59:28.063Z,97956.94
